Brainard, New York
Current Conditions -  °F | °C
As of 6:54 PM on Thursday 18 Dec 2014 (Local Time) from KPSF Reporting Station
Overcast Overcast  
Wind Chill: -8°   Ceiling: 1400
Heat Index: -1°   Visibility: 10mi
Dew Point: -4°   Wind: 18mph
Humidity: 82%   Direction: 290°WNW
Pressure: 29.87"   Gusts: 35mph
Location:  42.5°N, 73.51°W
Report Text: KPSF 182354Z AUTO 29016G30KT 10SM OVC014 M01/M04 A2987 RMK AO2 PK WND 27030/2350 SLP126 T10111039 10000 21011 50000
Loading
Personal Weather Stations






























Interactive Weather Map New forecast layout! Learn more

10-Day Weather Forecast

Advertisements
Track Severe Weather on mobile